Terminal Aerodrome Forecast
Issued by NWS Paducah, KY

Home | Current Version | Previous Version | Text Only | Print | Product List | Glossary On
Versions: 1 2 3 4 5 6 7 8 9 10 11 12 13 14 15 16 17 18 19 20 21 22
000
FTUS43 KPAH 310500
TAFEVV
TAF
KEVV 310520Z 3106/0106 18004KT P6SM VCSH SCT018 BKN080
      TEMPO 3107/3111 5SM BR BKN018
     FM311100 20005KT 4SM BR OVC009
     FM311600 22007KT P6SM BKN030
     FM312300 19005KT P6SM SCT040=

USA.gov is the U.S. government's official web portal to all federal, state and local government web resources and services.